sensor_id;sensor_type;location;lat;lon;timestamp;P1;durP1;ratioP1;P2;durP2;ratioP2
815;SDS011;25928;51.062;13.752;2022-12-10T00:02:10;41.33;;;22.03;;
815;SDS011;25928;51.062;13.752;2022-12-10T00:04:36;39.13;;;22.13;;
815;SDS011;25928;51.062;13.752;2022-12-10T00:07:01;41.67;;;23.97;;
815;SDS011;25928;51.062;13.752;2022-12-10T00:09:27;43.23;;;23.07;;
815;SDS011;25928;51.062;13.752;2022-12-10T00:11:52;39.50;;;22.30;;
815;SDS011;25928;51.062;13.752;2022-12-10T00:14:18;42.30;;;23.90;;
815;SDS011;25928;51.062;13.752;2022-12-10T00:16:44;39.17;;;22.77;;
815;SDS011;25928;51.062;13.752;2022-12-10T00:19:09;42.93;;;24.10;;
815;SDS011;25928;51.062;13.752;2022-12-10T00:21:35;45.13;;;24.20;;
815;SDS011;25928;51.062;13.752;2022-12-10T00:24:01;42.83;;;23.67;;
815;SDS011;25928;51.062;13.752;2022-12-10T00:26:35;42.47;;;24.37;;
815;SDS011;25928;51.062;13.752;2022-12-10T00:29:03;42.70;;;24.43;;
815;SDS011;25928;51.062;13.752;2022-12-10T00:31:32;45.50;;;23.20;;
815;SDS011;25928;51.062;13.752;2022-12-10T00:34:00;43.73;;;24.77;;
815;SDS011;25928;51.062;13.752;2022-12-10T00:36:32;46.23;;;24.60;;
815;SDS011;25928;51.062;13.752;2022-12-10T00:39:10;46.57;;;23.80;;
815;SDS011;25928;51.062;13.752;2022-12-10T00:41:37;41.03;;;22.83;;
815;SDS011;25928;51.062;13.752;2022-12-10T00:44:02;40.03;;;23.53;;
815;SDS011;25928;51.062;13.752;2022-12-10T00:46:28;42.23;;;23.47;;
815;SDS011;25928;51.062;13.752;2022-12-10T00:48:54;46.10;;;24.30;;
815;SDS011;25928;51.062;13.752;2022-12-10T00:51:20;42.80;;;24.27;;
815;SDS011;25928;51.062;13.752;2022-12-10T00:53:48;49.23;;;22.30;;
815;SDS011;25928;51.062;13.752;2022-12-10T00:56:17;40.83;;;22.43;;
815;SDS011;25928;51.062;13.752;2022-12-10T00:58:45;40.97;;;24.70;;
815;SDS011;25928;51.062;13.752;2022-12-10T01:01:23;44.70;;;23.10;;
815;SDS011;25928;51.062;13.752;2022-12-10T01:03:51;43.17;;;23.47;;
815;SDS011;25928;51.062;13.752;2022-12-10T01:08:48;38.90;;;22.77;;
815;SDS011;25928;51.062;13.752;2022-12-10T01:11:16;41.50;;;21.50;;
815;SDS011;25928;51.062;13.752;2022-12-10T01:13:43;39.60;;;22.73;;
815;SDS011;25928;51.062;13.752;2022-12-10T01:16:11;40.60;;;23.30;;
815;SDS011;25928;51.062;13.752;2022-12-10T01:18:38;41.37;;;23.40;;
815;SDS011;25928;51.062;13.752;2022-12-10T01:21:04;42.60;;;22.43;;
815;SDS011;25928;51.062;13.752;2022-12-10T01:23:36;44.50;;;23.50;;
815;SDS011;25928;51.062;13.752;2022-12-10T01:26:03;37.13;;;20.10;;
815;SDS011;25928;51.062;13.752;2022-12-10T01:28:32;46.40;;;23.13;;
815;SDS011;25928;51.062;13.752;2022-12-10T01:31:00;38.57;;;22.87;;
815;SDS011;25928;51.062;13.752;2022-12-10T01:33:27;41.30;;;21.47;;
815;SDS011;25928;51.062;13.752;2022-12-10T01:35:53;43.80;;;24.60;;
815;SDS011;25928;51.062;13.752;2022-12-10T01:38:19;42.03;;;22.97;;
815;SDS011;25928;51.062;13.752;2022-12-10T01:40:44;47.13;;;24.00;;
815;SDS011;25928;51.062;13.752;2022-12-10T01:43:16;40.50;;;22.27;;
815;SDS011;25928;51.062;13.752;2022-12-10T01:45:41;46.03;;;24.23;;
815;SDS011;25928;51.062;13.752;2022-12-10T01:48:07;39.07;;;22.63;;
815;SDS011;25928;51.062;13.752;2022-12-10T01:50:33;43.17;;;23.13;;
815;SDS011;25928;51.062;13.752;2022-12-10T01:52:58;40.87;;;23.10;;
815;SDS011;25928;51.062;13.752;2022-12-10T01:58:08;44.47;;;23.80;;
815;SDS011;25928;51.062;13.752;2022-12-10T02:00:34;44.90;;;22.73;;
815;SDS011;25928;51.062;13.752;2022-12-10T02:03:07;35.10;;;21.93;;
815;SDS011;25928;51.062;13.752;2022-12-10T02:05:49;36.43;;;20.33;;
815;SDS011;25928;51.062;13.752;2022-12-10T02:08:27;39.27;;;21.50;;
815;SDS011;25928;51.062;13.752;2022-12-10T02:13:39;40.23;;;23.90;;
815;SDS011;25928;51.062;13.752;2022-12-10T02:16:29;39.87;;;21.20;;
815;SDS011;25928;51.062;13.752;2022-12-10T02:18:58;33.20;;;19.60;;
815;SDS011;25928;51.062;13.752;2022-12-10T02:21:34;40.40;;;20.60;;
815;SDS011;25928;51.062;13.752;2022-12-10T02:24:04;34.00;;;19.67;;
815;SDS011;25928;51.062;13.752;2022-12-10T02:29:15;36.87;;;19.40;;
815;SDS011;25928;51.062;13.752;2022-12-10T02:31:46;34.23;;;18.93;;
815;SDS011;25928;51.062;13.752;2022-12-10T02:34:17;32.33;;;18.40;;
815;SDS011;25928;51.062;13.752;2022-12-10T02:36:46;33.70;;;18.07;;
815;SDS011;25928;51.062;13.752;2022-12-10T02:39:14;37.93;;;20.80;;
815;SDS011;25928;51.062;13.752;2022-12-10T02:41:46;36.90;;;21.20;;
815;SDS011;25928;51.062;13.752;2022-12-10T02:44:16;35.73;;;22.40;;
815;SDS011;25928;51.062;13.752;2022-12-10T02:46:43;35.00;;;18.80;;
815;SDS011;25928;51.062;13.752;2022-12-10T02:49:12;30.90;;;20.20;;
815;SDS011;25928;51.062;13.752;2022-12-10T02:51:40;34.60;;;18.43;;
815;SDS011;25928;51.062;13.752;2022-12-10T02:54:06;29.50;;;16.90;;
815;SDS011;25928;51.062;13.752;2022-12-10T02:56:54;33.57;;;17.90;;
815;SDS011;25928;51.062;13.752;2022-12-10T02:59:27;31.73;;;16.63;;
815;SDS011;25928;51.062;13.752;2022-12-10T03:02:16;28.30;;;16.57;;
815;SDS011;25928;51.062;13.752;2022-12-10T03:05:08;28.10;;;16.87;;
815;SDS011;25928;51.062;13.752;2022-12-10T03:07:56;31.17;;;18.70;;
815;SDS011;25928;51.062;13.752;2022-12-10T03:10:33;31.57;;;18.20;;
815;SDS011;25928;51.062;13.752;2022-12-10T03:13:06;34.20;;;17.43;;
815;SDS011;25928;51.062;13.752;2022-12-10T03:15:35;32.97;;;18.10;;
815;SDS011;25928;51.062;13.752;2022-12-10T03:18:05;29.47;;;17.43;;
815;SDS011;25928;51.062;13.752;2022-12-10T03:20:33;33.07;;;17.77;;
815;SDS011;25928;51.062;13.752;2022-12-10T03:23:01;38.20;;;21.17;;
815;SDS011;25928;51.062;13.752;2022-12-10T03:25:28;34.70;;;19.57;;
815;SDS011;25928;51.062;13.752;2022-12-10T03:27:56;32.23;;;18.80;;
815;SDS011;25928;51.062;13.752;2022-12-10T03:30:25;36.13;;;20.33;;
815;SDS011;25928;51.062;13.752;2022-12-10T03:32:52;43.07;;;20.93;;
815;SDS011;25928;51.062;13.752;2022-12-10T03:35:19;40.50;;;21.90;;
815;SDS011;25928;51.062;13.752;2022-12-10T03:37:46;36.30;;;20.10;;
815;SDS011;25928;51.062;13.752;2022-12-10T03:40:14;36.10;;;21.30;;
815;SDS011;25928;51.062;13.752;2022-12-10T03:42:41;33.37;;;19.90;;
815;SDS011;25928;51.062;13.752;2022-12-10T03:45:06;40.77;;;20.77;;
815;SDS011;25928;51.062;13.752;2022-12-10T03:47:32;34.07;;;19.07;;
815;SDS011;25928;51.062;13.752;2022-12-10T03:49:58;36.47;;;20.57;;
815;SDS011;25928;51.062;13.752;2022-12-10T03:52:24;35.07;;;19.97;;
815;SDS011;25928;51.062;13.752;2022-12-10T03:54:49;38.33;;;20.23;;
815;SDS011;25928;51.062;13.752;2022-12-10T03:57:15;34.07;;;20.23;;
815;SDS011;25928;51.062;13.752;2022-12-10T03:59:40;35.80;;;21.03;;
815;SDS011;25928;51.062;13.752;2022-12-10T04:02:06;32.23;;;19.37;;
815;SDS011;25928;51.062;13.752;2022-12-10T04:04:31;34.47;;;20.50;;
815;SDS011;25928;51.062;13.752;2022-12-10T04:06:57;33.53;;;17.90;;
815;SDS011;25928;51.062;13.752;2022-12-10T04:09:23;34.50;;;18.47;;
815;SDS011;25928;51.062;13.752;2022-12-10T04:11:48;33.63;;;19.40;;
815;SDS011;25928;51.062;13.752;2022-12-10T04:14:14;38.07;;;20.90;;
815;SDS011;25928;51.062;13.752;2022-12-10T04:16:58;34.73;;;18.80;;
815;SDS011;25928;51.062;13.752;2022-12-10T04:19:24;31.50;;;18.30;;
815;SDS011;25928;51.062;13.752;2022-12-10T04:21:50;31.73;;;18.63;;
815;SDS011;25928;51.062;13.752;2022-12-10T04:24:35;30.30;;;19.17;;
815;SDS011;25928;51.062;13.752;2022-12-10T04:27:24;38.20;;;16.87;;
815;SDS011;25928;51.062;13.752;2022-12-10T04:29:52;31.00;;;17.60;;
815;SDS011;25928;51.062;13.752;2022-12-10T04:32:19;28.50;;;16.80;;
815;SDS011;25928;51.062;13.752;2022-12-10T04:34:46;31.70;;;18.03;;
815;SDS011;25928;51.062;13.752;2022-12-10T04:37:13;29.80;;;16.87;;
815;SDS011;25928;51.062;13.752;2022-12-10T04:39:40;30.07;;;17.57;;
815;SDS011;25928;51.062;13.752;2022-12-10T04:42:06;30.63;;;15.83;;
815;SDS011;25928;51.062;13.752;2022-12-10T04:44:32;32.70;;;17.30;;
815;SDS011;25928;51.062;13.752;2022-12-10T04:46:58;27.53;;;15.87;;
815;SDS011;25928;51.062;13.752;2022-12-10T04:49:24;30.83;;;18.73;;
815;SDS011;25928;51.062;13.752;2022-12-10T04:51:50;29.30;;;17.10;;
815;SDS011;25928;51.062;13.752;2022-12-10T04:54:16;30.73;;;17.33;;
815;SDS011;25928;51.062;13.752;2022-12-10T04:56:42;35.53;;;18.43;;
815;SDS011;25928;51.062;13.752;2022-12-10T04:59:08;30.80;;;18.23;;
815;SDS011;25928;51.062;13.752;2022-12-10T05:01:34;29.93;;;17.17;;
815;SDS011;25928;51.062;13.752;2022-12-10T05:04:00;27.57;;;16.50;;
815;SDS011;25928;51.062;13.752;2022-12-10T05:06:27;32.37;;;17.30;;
815;SDS011;25928;51.062;13.752;2022-12-10T05:08:53;30.40;;;18.53;;
815;SDS011;25928;51.062;13.752;2022-12-10T05:11:19;36.40;;;18.83;;
815;SDS011;25928;51.062;13.752;2022-12-10T05:13:46;32.13;;;18.40;;
815;SDS011;25928;51.062;13.752;2022-12-10T05:16:13;35.83;;;18.73;;
815;SDS011;25928;51.062;13.752;2022-12-10T05:18:43;30.53;;;16.70;;
815;SDS011;25928;51.062;13.752;2022-12-10T05:21:12;33.03;;;19.03;;
815;SDS011;25928;51.062;13.752;2022-12-10T05:23:41;32.23;;;18.53;;
815;SDS011;25928;51.062;13.752;2022-12-10T05:26:10;34.20;;;17.57;;
815;SDS011;25928;51.062;13.752;2022-12-10T05:28:42;32.63;;;18.10;;
815;SDS011;25928;51.062;13.752;2022-12-10T05:31:19;35.03;;;17.87;;
815;SDS011;25928;51.062;13.752;2022-12-10T05:33:47;36.27;;;18.30;;
815;SDS011;25928;51.062;13.752;2022-12-10T05:36:13;31.93;;;16.97;;
815;SDS011;25928;51.062;13.752;2022-12-10T05:38:40;36.90;;;18.37;;
815;SDS011;25928;51.062;13.752;2022-12-10T05:41:08;30.57;;;18.20;;
815;SDS011;25928;51.062;13.752;2022-12-10T05:43:35;33.33;;;18.67;;
815;SDS011;25928;51.062;13.752;2022-12-10T05:46:01;31.60;;;17.57;;
815;SDS011;25928;51.062;13.752;2022-12-10T05:48:29;32.97;;;19.33;;
815;SDS011;25928;51.062;13.752;2022-12-10T05:50:55;36.63;;;18.40;;
815;SDS011;25928;51.062;13.752;2022-12-10T05:53:21;32.80;;;17.97;;
815;SDS011;25928;51.062;13.752;2022-12-10T05:55:47;35.27;;;17.40;;
815;SDS011;25928;51.062;13.752;2022-12-10T05:58:13;32.60;;;17.73;;
815;SDS011;25928;51.062;13.752;2022-12-10T06:00:39;35.20;;;19.70;;
815;SDS011;25928;51.062;13.752;2022-12-10T06:03:05;32.10;;;17.23;;
815;SDS011;25928;51.062;13.752;2022-12-10T06:05:40;36.00;;;18.90;;
815;SDS011;25928;51.062;13.752;2022-12-10T06:08:06;34.33;;;19.50;;
815;SDS011;25928;51.062;13.752;2022-12-10T06:10:35;27.80;;;16.37;;
815;SDS011;25928;51.062;13.752;2022-12-10T06:13:01;37.77;;;17.70;;
815;SDS011;25928;51.062;13.752;2022-12-10T06:15:28;34.57;;;17.70;;
815;SDS011;25928;51.062;13.752;2022-12-10T06:17:54;34.40;;;18.57;;
815;SDS011;25928;51.062;13.752;2022-12-10T06:20:20;35.07;;;19.70;;
815;SDS011;25928;51.062;13.752;2022-12-10T06:22:46;34.33;;;18.57;;
815;SDS011;25928;51.062;13.752;2022-12-10T06:25:12;34.40;;;17.63;;
815;SDS011;25928;51.062;13.752;2022-12-10T06:27:38;33.87;;;19.33;;
815;SDS011;25928;51.062;13.752;2022-12-10T06:30:03;36.20;;;19.03;;
815;SDS011;25928;51.062;13.752;2022-12-10T06:32:30;38.13;;;18.73;;
815;SDS011;25928;51.062;13.752;2022-12-10T06:34:55;32.90;;;18.67;;
815;SDS011;25928;51.062;13.752;2022-12-10T06:37:21;35.40;;;19.30;;
815;SDS011;25928;51.062;13.752;2022-12-10T06:39:46;31.93;;;16.40;;
815;SDS011;25928;51.062;13.752;2022-12-10T06:42:12;34.40;;;18.73;;
815;SDS011;25928;51.062;13.752;2022-12-10T06:44:38;33.40;;;17.10;;
815;SDS011;25928;51.062;13.752;2022-12-10T06:47:03;33.70;;;18.03;;
815;SDS011;25928;51.062;13.752;2022-12-10T06:49:29;34.63;;;18.13;;
815;SDS011;25928;51.062;13.752;2022-12-10T06:51:54;32.50;;;18.00;;
815;SDS011;25928;51.062;13.752;2022-12-10T06:54:20;34.07;;;18.93;;
815;SDS011;25928;51.062;13.752;2022-12-10T06:56:46;38.10;;;18.47;;
815;SDS011;25928;51.062;13.752;2022-12-10T06:59:11;36.30;;;20.07;;
815;SDS011;25928;51.062;13.752;2022-12-10T07:01:37;36.60;;;19.73;;
815;SDS011;25928;51.062;13.752;2022-12-10T07:04:03;37.50;;;20.83;;
815;SDS011;25928;51.062;13.752;2022-12-10T07:06:30;37.30;;;18.93;;
815;SDS011;25928;51.062;13.752;2022-12-10T07:08:57;37.43;;;18.60;;
815;SDS011;25928;51.062;13.752;2022-12-10T07:11:23;35.60;;;20.50;;
815;SDS011;25928;51.062;13.752;2022-12-10T07:13:49;31.63;;;18.60;;
815;SDS011;25928;51.062;13.752;2022-12-10T07:16:16;35.90;;;19.00;;
815;SDS011;25928;51.062;13.752;2022-12-10T07:18:47;35.97;;;19.60;;
815;SDS011;25928;51.062;13.752;2022-12-10T07:21:14;31.83;;;18.53;;
815;SDS011;25928;51.062;13.752;2022-12-10T07:23:49;37.20;;;20.03;;
815;SDS011;25928;51.062;13.752;2022-12-10T07:26:16;39.47;;;21.73;;
815;SDS011;25928;51.062;13.752;2022-12-10T07:28:42;34.07;;;19.37;;
815;SDS011;25928;51.062;13.752;2022-12-10T07:31:08;32.63;;;18.47;;
815;SDS011;25928;51.062;13.752;2022-12-10T07:33:35;37.97;;;20.03;;
815;SDS011;25928;51.062;13.752;2022-12-10T07:36:08;36.73;;;20.37;;
815;SDS011;25928;51.062;13.752;2022-12-10T07:38:35;35.27;;;18.77;;
815;SDS011;25928;51.062;13.752;2022-12-10T07:41:04;39.77;;;19.13;;
815;SDS011;25928;51.062;13.752;2022-12-10T07:43:35;35.53;;;20.20;;
815;SDS011;25928;51.062;13.752;2022-12-10T07:46:12;42.00;;;19.93;;
815;SDS011;25928;51.062;13.752;2022-12-10T07:48:40;41.37;;;22.97;;
815;SDS011;25928;51.062;13.752;2022-12-10T07:51:07;36.23;;;18.60;;
815;SDS011;25928;51.062;13.752;2022-12-10T07:53:33;45.43;;;22.20;;
815;SDS011;25928;51.062;13.752;2022-12-10T07:56:00;39.17;;;20.80;;
815;SDS011;25928;51.062;13.752;2022-12-10T07:58:26;38.47;;;22.07;;
815;SDS011;25928;51.062;13.752;2022-12-10T08:00:52;39.70;;;20.70;;
815;SDS011;25928;51.062;13.752;2022-12-10T08:03:17;42.33;;;21.10;;
815;SDS011;25928;51.062;13.752;2022-12-10T08:05:43;39.53;;;21.43;;
815;SDS011;25928;51.062;13.752;2022-12-10T08:08:08;42.67;;;21.03;;
815;SDS011;25928;51.062;13.752;2022-12-10T08:10:34;35.20;;;18.30;;
815;SDS011;25928;51.062;13.752;2022-12-10T08:13:01;37.73;;;19.03;;
815;SDS011;25928;51.062;13.752;2022-12-10T08:15:26;39.90;;;20.70;;
815;SDS011;25928;51.062;13.752;2022-12-10T08:17:53;40.97;;;21.50;;
815;SDS011;25928;51.062;13.752;2022-12-10T08:20:19;33.13;;;19.00;;
815;SDS011;25928;51.062;13.752;2022-12-10T08:22:45;42.43;;;23.77;;
815;SDS011;25928;51.062;13.752;2022-12-10T08:25:11;37.13;;;20.03;;
815;SDS011;25928;51.062;13.752;2022-12-10T08:27:36;37.97;;;19.13;;
815;SDS011;25928;51.062;13.752;2022-12-10T08:30:02;46.07;;;22.23;;
815;SDS011;25928;51.062;13.752;2022-12-10T08:32:28;37.77;;;19.73;;
815;SDS011;25928;51.062;13.752;2022-12-10T08:34:54;36.03;;;20.63;;
815;SDS011;25928;51.062;13.752;2022-12-10T08:37:20;41.80;;;20.27;;
815;SDS011;25928;51.062;13.752;2022-12-10T08:39:46;49.37;;;24.50;;
815;SDS011;25928;51.062;13.752;2022-12-10T08:42:11;43.37;;;22.90;;
815;SDS011;25928;51.062;13.752;2022-12-10T08:44:37;43.90;;;25.93;;
815;SDS011;25928;51.062;13.752;2022-12-10T08:47:02;45.53;;;23.30;;
815;SDS011;25928;51.062;13.752;2022-12-10T08:49:28;41.80;;;24.27;;
815;SDS011;25928;51.062;13.752;2022-12-10T08:51:54;56.20;;;33.27;;
815;SDS011;25928;51.062;13.752;2022-12-10T08:54:19;47.57;;;27.80;;
815;SDS011;25928;51.062;13.752;2022-12-10T08:56:45;40.40;;;25.27;;
815;SDS011;25928;51.062;13.752;2022-12-10T08:59:11;43.03;;;21.57;;
815;SDS011;25928;51.062;13.752;2022-12-10T09:01:36;39.80;;;22.30;;
815;SDS011;25928;51.062;13.752;2022-12-10T09:04:02;45.40;;;23.43;;
815;SDS011;25928;51.062;13.752;2022-12-10T09:06:27;45.23;;;23.23;;
815;SDS011;25928;51.062;13.752;2022-12-10T09:08:53;36.50;;;21.80;;
815;SDS011;25928;51.062;13.752;2022-12-10T09:11:24;38.83;;;21.23;;
815;SDS011;25928;51.062;13.752;2022-12-10T09:13:55;47.87;;;26.70;;
815;SDS011;25928;51.062;13.752;2022-12-10T09:16:27;37.77;;;22.47;;
815;SDS011;25928;51.062;13.752;2022-12-10T09:19:00;45.63;;;23.83;;
815;SDS011;25928;51.062;13.752;2022-12-10T09:21:26;35.03;;;21.40;;
815;SDS011;25928;51.062;13.752;2022-12-10T09:23:52;37.33;;;21.30;;
815;SDS011;25928;51.062;13.752;2022-12-10T09:26:18;39.23;;;21.00;;
815;SDS011;25928;51.062;13.752;2022-12-10T09:28:45;41.40;;;22.00;;
815;SDS011;25928;51.062;13.752;2022-12-10T09:31:11;43.17;;;22.30;;
815;SDS011;25928;51.062;13.752;2022-12-10T09:33:38;37.30;;;22.40;;
815;SDS011;25928;51.062;13.752;2022-12-10T09:36:05;39.93;;;21.07;;
815;SDS011;25928;51.062;13.752;2022-12-10T09:38:36;34.57;;;20.47;;
815;SDS011;25928;51.062;13.752;2022-12-10T09:46:10;41.33;;;22.10;;
815;SDS011;25928;51.062;13.752;2022-12-10T09:51:20;36.57;;;21.03;;
815;SDS011;25928;51.062;13.752;2022-12-10T09:53:48;34.27;;;18.33;;
815;SDS011;25928;51.062;13.752;2022-12-10T09:56:23;38.00;;;22.80;;
815;SDS011;25928;51.062;13.752;2022-12-10T09:59:06;39.73;;;21.60;;
815;SDS011;25928;51.062;13.752;2022-12-10T10:01:45;38.47;;;19.60;;
815;SDS011;25928;51.062;13.752;2022-12-10T10:04:15;50.03;;;23.03;;
815;SDS011;25928;51.062;13.752;2022-12-10T10:06:41;43.17;;;21.00;;
815;SDS011;25928;51.062;13.752;2022-12-10T10:09:07;45.57;;;24.10;;
815;SDS011;25928;51.062;13.752;2022-12-10T10:11:38;40.53;;;21.90;;
815;SDS011;25928;51.062;13.752;2022-12-10T10:14:05;38.73;;;21.57;;
815;SDS011;25928;51.062;13.752;2022-12-10T10:16:43;43.87;;;23.13;;
815;SDS011;25928;51.062;13.752;2022-12-10T10:19:16;37.50;;;21.00;;
815;SDS011;25928;51.062;13.752;2022-12-10T10:21:46;41.57;;;20.67;;
815;SDS011;25928;51.062;13.752;2022-12-10T10:24:18;38.00;;;20.80;;
815;SDS011;25928;51.062;13.752;2022-12-10T10:26:50;37.90;;;20.20;;
815;SDS011;25928;51.062;13.752;2022-12-10T10:29:20;33.00;;;19.53;;
815;SDS011;25928;51.062;13.752;2022-12-10T10:31:57;37.50;;;21.37;;
815;SDS011;25928;51.062;13.752;2022-12-10T10:34:46;35.53;;;19.33;;
815;SDS011;25928;51.062;13.752;2022-12-10T10:37:27;32.70;;;19.50;;
815;SDS011;25928;51.062;13.752;2022-12-10T10:40:00;33.83;;;21.07;;
815;SDS011;25928;51.062;13.752;2022-12-10T10:42:39;32.97;;;20.10;;
815;SDS011;25928;51.062;13.752;2022-12-10T10:48:12;33.17;;;22.43;;
815;SDS011;25928;51.062;13.752;2022-12-10T10:50:53;32.83;;;20.30;;
815;SDS011;25928;51.062;13.752;2022-12-10T10:53:20;30.37;;;19.93;;
815;SDS011;25928;51.062;13.752;2022-12-10T10:55:51;38.20;;;23.13;;
815;SDS011;25928;51.062;13.752;2022-12-10T10:58:19;35.23;;;20.80;;
815;SDS011;25928;51.062;13.752;2022-12-10T11:00:53;38.73;;;23.23;;
815;SDS011;25928;51.062;13.752;2022-12-10T11:03:20;30.90;;;20.10;;
815;SDS011;25928;51.062;13.752;2022-12-10T11:05:47;36.00;;;22.40;;
815;SDS011;25928;51.062;13.752;2022-12-10T11:08:13;33.90;;;22.83;;
815;SDS011;25928;51.062;13.752;2022-12-10T11:10:48;31.83;;;21.00;;
815;SDS011;25928;51.062;13.752;2022-12-10T11:13:25;32.27;;;18.57;;
815;SDS011;25928;51.062;13.752;2022-12-10T11:16:11;27.57;;;17.93;;
815;SDS011;25928;51.062;13.752;2022-12-10T11:18:57;29.50;;;17.63;;
815;SDS011;25928;51.062;13.752;2022-12-10T11:21:27;31.37;;;17.90;;
815;SDS011;25928;51.062;13.752;2022-12-10T11:23:55;28.97;;;19.30;;
815;SDS011;25928;51.062;13.752;2022-12-10T11:26:38;25.93;;;17.83;;
815;SDS011;25928;51.062;13.752;2022-12-10T11:29:46;27.40;;;18.00;;
815;SDS011;25928;51.062;13.752;2022-12-10T11:32:27;32.10;;;19.17;;
815;SDS011;25928;51.062;13.752;2022-12-10T11:40:50;28.50;;;18.00;;
815;SDS011;25928;51.062;13.752;2022-12-10T11:51:26;25.40;;;17.93;;
815;SDS011;25928;51.062;13.752;2022-12-10T11:57:23;31.60;;;18.30;;
815;SDS011;25928;51.062;13.752;2022-12-10T12:05:47;23.17;;;15.07;;
815;SDS011;25928;51.062;13.752;2022-12-10T12:17:28;26.50;;;16.93;;
815;SDS011;25928;51.062;13.752;2022-12-10T12:19:59;26.97;;;16.53;;
815;SDS011;25928;51.062;13.752;2022-12-10T12:22:36;31.00;;;18.83;;
815;SDS011;25928;51.062;13.752;2022-12-10T12:25:29;31.60;;;21.77;;
815;SDS011;25928;51.062;13.752;2022-12-10T12:30:43;27.70;;;17.80;;
815;SDS011;25928;51.062;13.752;2022-12-10T12:33:12;27.10;;;19.60;;
815;SDS011;25928;51.062;13.752;2022-12-10T12:40:57;22.60;;;15.27;;
815;SDS011;25928;51.062;13.752;2022-12-10T12:43:44;27.87;;;16.53;;
815;SDS011;25928;51.062;13.752;2022-12-10T12:46:42;24.20;;;15.23;;
815;SDS011;25928;51.062;13.752;2022-12-10T12:49:14;25.60;;;16.50;;
815;SDS011;25928;51.062;13.752;2022-12-10T12:54:19;28.57;;;16.93;;
815;SDS011;25928;51.062;13.752;2022-12-10T12:59:26;29.30;;;17.03;;
815;SDS011;25928;51.062;13.752;2022-12-10T13:04:56;25.47;;;15.50;;
815;SDS011;25928;51.062;13.752;2022-12-10T13:09:51;24.63;;;17.00;;
815;SDS011;25928;51.062;13.752;2022-12-10T13:18:01;20.10;;;14.07;;
815;SDS011;25928;51.062;13.752;2022-12-10T13:20:46;23.63;;;14.70;;
815;SDS011;25928;51.062;13.752;2022-12-10T13:36:36;22.43;;;14.70;;
815;SDS011;25928;51.062;13.752;2022-12-10T13:39:32;27.00;;;16.30;;
815;SDS011;25928;51.062;13.752;2022-12-10T13:44:56;25.80;;;15.40;;
815;SDS011;25928;51.062;13.752;2022-12-10T13:50:03;24.93;;;15.07;;
815;SDS011;25928;51.062;13.752;2022-12-10T13:55:37;24.77;;;16.67;;
815;SDS011;25928;51.062;13.752;2022-12-10T14:06:58;24.83;;;15.87;;
815;SDS011;25928;51.062;13.752;2022-12-10T14:09:25;24.33;;;16.20;;
815;SDS011;25928;51.062;13.752;2022-12-10T14:12:04;24.77;;;15.07;;
815;SDS011;25928;51.062;13.752;2022-12-10T14:14:40;24.80;;;17.03;;
815;SDS011;25928;51.062;13.752;2022-12-10T14:17:12;25.93;;;16.23;;
815;SDS011;25928;51.062;13.752;2022-12-10T14:19:44;25.00;;;15.80;;
815;SDS011;25928;51.062;13.752;2022-12-10T14:22:15;23.17;;;14.47;;
815;SDS011;25928;51.062;13.752;2022-12-10T14:24:47;22.73;;;15.10;;
815;SDS011;25928;51.062;13.752;2022-12-10T14:27:16;24.80;;;15.60;;
815;SDS011;25928;51.062;13.752;2022-12-10T14:29:47;23.87;;;15.90;;
815;SDS011;25928;51.062;13.752;2022-12-10T14:32:16;20.30;;;14.00;;
815;SDS011;25928;51.062;13.752;2022-12-10T14:34:51;26.37;;;16.30;;
815;SDS011;25928;51.062;13.752;2022-12-10T14:37:22;24.53;;;14.23;;
815;SDS011;25928;51.062;13.752;2022-12-10T14:39:50;23.00;;;14.63;;
815;SDS011;25928;51.062;13.752;2022-12-10T14:42:17;23.57;;;15.97;;
815;SDS011;25928;51.062;13.752;2022-12-10T14:44:43;28.20;;;17.83;;
815;SDS011;25928;51.062;13.752;2022-12-10T14:47:17;22.13;;;16.33;;
815;SDS011;25928;51.062;13.752;2022-12-10T14:49:49;23.43;;;16.43;;
815;SDS011;25928;51.062;13.752;2022-12-10T14:52:19;23.77;;;17.00;;
815;SDS011;25928;51.062;13.752;2022-12-10T14:54:47;26.60;;;16.77;;
815;SDS011;25928;51.062;13.752;2022-12-10T14:57:27;24.17;;;15.57;;
815;SDS011;25928;51.062;13.752;2022-12-10T15:00:15;25.83;;;16.30;;
815;SDS011;25928;51.062;13.752;2022-12-10T15:03:02;29.73;;;17.07;;
815;SDS011;25928;51.062;13.752;2022-12-10T15:05:33;26.30;;;16.80;;
815;SDS011;25928;51.062;13.752;2022-12-10T15:08:02;27.00;;;16.80;;
815;SDS011;25928;51.062;13.752;2022-12-10T15:10:28;23.77;;;15.90;;
815;SDS011;25928;51.062;13.752;2022-12-10T15:13:12;35.73;;;17.77;;
815;SDS011;25928;51.062;13.752;2022-12-10T15:15:51;27.97;;;17.30;;
815;SDS011;25928;51.062;13.752;2022-12-10T15:18:19;25.63;;;17.00;;
815;SDS011;25928;51.062;13.752;2022-12-10T15:20:54;26.03;;;16.87;;
815;SDS011;25928;51.062;13.752;2022-12-10T15:33:39;29.30;;;17.73;;
815;SDS011;25928;51.062;13.752;2022-12-10T15:36:18;27.90;;;18.73;;
815;SDS011;25928;51.062;13.752;2022-12-10T15:38:47;26.00;;;17.03;;
815;SDS011;25928;51.062;13.752;2022-12-10T15:41:24;26.70;;;17.63;;
815;SDS011;25928;51.062;13.752;2022-12-10T15:44:04;30.03;;;19.43;;
815;SDS011;25928;51.062;13.752;2022-12-10T15:46:48;30.60;;;18.80;;
815;SDS011;25928;51.062;13.752;2022-12-10T15:49:15;30.50;;;18.83;;
815;SDS011;25928;51.062;13.752;2022-12-10T15:51:40;29.20;;;19.13;;
815;SDS011;25928;51.062;13.752;2022-12-10T15:57:17;31.50;;;19.80;;
815;SDS011;25928;51.062;13.752;2022-12-10T15:59:45;31.63;;;19.17;;
815;SDS011;25928;51.062;13.752;2022-12-10T16:07:54;31.53;;;19.07;;
815;SDS011;25928;51.062;13.752;2022-12-10T16:10:22;31.60;;;19.83;;
815;SDS011;25928;51.062;13.752;2022-12-10T16:12:53;26.33;;;18.90;;
815;SDS011;25928;51.062;13.752;2022-12-10T16:15:32;32.53;;;19.30;;
815;SDS011;25928;51.062;13.752;2022-12-10T16:18:03;34.27;;;22.60;;
815;SDS011;25928;51.062;13.752;2022-12-10T16:20:29;33.10;;;22.50;;
815;SDS011;25928;51.062;13.752;2022-12-10T16:22:57;36.90;;;19.50;;
815;SDS011;25928;51.062;13.752;2022-12-10T16:25:24;31.77;;;19.70;;
815;SDS011;25928;51.062;13.752;2022-12-10T16:27:51;35.00;;;19.90;;
815;SDS011;25928;51.062;13.752;2022-12-10T16:30:19;31.50;;;19.80;;
815;SDS011;25928;51.062;13.752;2022-12-10T16:32:46;33.63;;;21.97;;
815;SDS011;25928;51.062;13.752;2022-12-10T16:35:13;36.80;;;20.50;;
815;SDS011;25928;51.062;13.752;2022-12-10T16:37:42;31.30;;;20.27;;
815;SDS011;25928;51.062;13.752;2022-12-10T16:40:10;32.33;;;20.47;;
815;SDS011;25928;51.062;13.752;2022-12-10T16:42:40;35.10;;;20.10;;
815;SDS011;25928;51.062;13.752;2022-12-10T16:45:11;36.47;;;21.50;;
815;SDS011;25928;51.062;13.752;2022-12-10T16:47:43;33.07;;;21.70;;
815;SDS011;25928;51.062;13.752;2022-12-10T16:50:08;44.67;;;23.40;;
815;SDS011;25928;51.062;13.752;2022-12-10T16:52:35;37.60;;;22.30;;
815;SDS011;25928;51.062;13.752;2022-12-10T16:55:01;32.10;;;19.77;;
815;SDS011;25928;51.062;13.752;2022-12-10T16:57:27;35.63;;;20.67;;